sensor_id;sensor_type;location;lat;lon;timestamp;temperature;humidity
7762;DHT22;3925;48.636;9.516;2023-02-23T00:00:32;9.40;99.90
7762;DHT22;3925;48.636;9.516;2023-02-23T00:03:00;9.30;99.90
7762;DHT22;3925;48.636;9.516;2023-02-23T00:05:29;9.40;99.90
7762;DHT22;3925;48.636;9.516;2023-02-23T00:07:56;9.50;99.90
7762;DHT22;3925;48.636;9.516;2023-02-23T00:10:23;9.50;99.90
7762;DHT22;3925;48.636;9.516;2023-02-23T00:12:56;9.30;99.90
7762;DHT22;3925;48.636;9.516;2023-02-23T00:15:24;9.20;99.90
7762;DHT22;3925;48.636;9.516;2023-02-23T00:17:52;9.40;99.90
7762;DHT22;3925;48.636;9.516;2023-02-23T00:20:20;9.50;99.90
7762;DHT22;3925;48.636;9.516;2023-02-23T00:22:52;9.60;99.90
7762;DHT22;3925;48.636;9.516;2023-02-23T00:25:19;9.50;99.90
7762;DHT22;3925;48.636;9.516;2023-02-23T00:27:46;9.50;99.90
7762;DHT22;3925;48.636;9.516;2023-02-23T00:30:17;9.60;99.90
7762;DHT22;3925;48.636;9.516;2023-02-23T00:32:44;9.60;99.90
7762;DHT22;3925;48.636;9.516;2023-02-23T00:35:12;9.40;99.90
7762;DHT22;3925;48.636;9.516;2023-02-23T00:37:44;9.50;99.90
7762;DHT22;3925;48.636;9.516;2023-02-23T00:40:12;9.60;99.90
7762;DHT22;3925;48.636;9.516;2023-02-23T00:42:42;9.50;99.90
7762;DHT22;3925;48.636;9.516;2023-02-23T00:45:10;9.60;99.90
7762;DHT22;3925;48.636;9.516;2023-02-23T00:47:39;9.60;99.90
7762;DHT22;3925;48.636;9.516;2023-02-23T00:50:09;9.70;99.90
7762;DHT22;3925;48.636;9.516;2023-02-23T00:52:38;9.70;99.90
7762;DHT22;3925;48.636;9.516;2023-02-23T00:55:07;9.80;99.90
7762;DHT22;3925;48.636;9.516;2023-02-23T00:57:34;9.80;99.90
7762;DHT22;3925;48.636;9.516;2023-02-23T01:00:01;9.80;99.90
7762;DHT22;3925;48.636;9.516;2023-02-23T01:02:39;9.70;99.90
7762;DHT22;3925;48.636;9.516;2023-02-23T01:05:07;9.80;99.90
7762;DHT22;3925;48.636;9.516;2023-02-23T01:07:35;9.70;99.90
7762;DHT22;3925;48.636;9.516;2023-02-23T01:10:03;9.70;99.90
7762;DHT22;3925;48.636;9.516;2023-02-23T01:12:45;9.70;99.90
7762;DHT22;3925;48.636;9.516;2023-02-23T01:15:11;9.60;99.90
7762;DHT22;3925;48.636;9.516;2023-02-23T01:17:40;9.70;99.90
7762;DHT22;3925;48.636;9.516;2023-02-23T01:20:09;9.80;99.90
7762;DHT22;3925;48.636;9.516;2023-02-23T01:22:40;9.50;99.90
7762;DHT22;3925;48.636;9.516;2023-02-23T01:25:08;9.40;99.90
7762;DHT22;3925;48.636;9.516;2023-02-23T01:27:37;9.50;99.90
7762;DHT22;3925;48.636;9.516;2023-02-23T01:30:04;9.60;99.90
7762;DHT22;3925;48.636;9.516;2023-02-23T01:32:33;9.50;99.90
7762;DHT22;3925;48.636;9.516;2023-02-23T01:35:02;9.60;99.90
7762;DHT22;3925;48.636;9.516;2023-02-23T01:37:30;9.70;99.90
7762;DHT22;3925;48.636;9.516;2023-02-23T01:39:59;9.70;99.90
7762;DHT22;3925;48.636;9.516;2023-02-23T01:42:28;9.70;99.90
7762;DHT22;3925;48.636;9.516;2023-02-23T01:45:24;9.60;99.90
7762;DHT22;3925;48.636;9.516;2023-02-23T01:47:54;9.60;99.90
7762;DHT22;3925;48.636;9.516;2023-02-23T01:50:26;9.60;99.90
7762;DHT22;3925;48.636;9.516;2023-02-23T01:52:54;9.50;99.90
7762;DHT22;3925;48.636;9.516;2023-02-23T01:55:22;9.40;99.90
7762;DHT22;3925;48.636;9.516;2023-02-23T01:57:53;9.50;99.90
7762;DHT22;3925;48.636;9.516;2023-02-23T02:00:23;9.60;99.90
7762;DHT22;3925;48.636;9.516;2023-02-23T02:02:52;9.60;99.90
7762;DHT22;3925;48.636;9.516;2023-02-23T02:05:20;9.60;99.90
7762;DHT22;3925;48.636;9.516;2023-02-23T02:07:50;9.70;99.90
7762;DHT22;3925;48.636;9.516;2023-02-23T02:10:24;9.70;99.90
7762;DHT22;3925;48.636;9.516;2023-02-23T02:13:06;9.70;99.90
7762;DHT22;3925;48.636;9.516;2023-02-23T02:15:44;9.70;99.90
7762;DHT22;3925;48.636;9.516;2023-02-23T02:18:25;9.70;99.90
7762;DHT22;3925;48.636;9.516;2023-02-23T02:21:23;9.60;99.90
7762;DHT22;3925;48.636;9.516;2023-02-23T02:27:13;9.40;99.90
7762;DHT22;3925;48.636;9.516;2023-02-23T02:33:19;9.50;99.90
7762;DHT22;3925;48.636;9.516;2023-02-23T02:36:17;9.40;99.90
7762;DHT22;3925;48.636;9.516;2023-02-23T02:38:54;9.60;99.90
7762;DHT22;3925;48.636;9.516;2023-02-23T02:41:29;9.50;99.90
7762;DHT22;3925;48.636;9.516;2023-02-23T02:44:07;9.40;99.90
7762;DHT22;3925;48.636;9.516;2023-02-23T02:46:38;9.30;99.90
7762;DHT22;3925;48.636;9.516;2023-02-23T02:49:11;9.30;99.90
7762;DHT22;3925;48.636;9.516;2023-02-23T02:51:46;9.40;99.90
7762;DHT22;3925;48.636;9.516;2023-02-23T02:54:19;9.40;99.90
7762;DHT22;3925;48.636;9.516;2023-02-23T02:56:51;9.30;99.90
7762;DHT22;3925;48.636;9.516;2023-02-23T02:59:22;9.30;99.90
7762;DHT22;3925;48.636;9.516;2023-02-23T03:02:14;9.30;99.90
7762;DHT22;3925;48.636;9.516;2023-02-23T03:04:59;9.40;99.90
7762;DHT22;3925;48.636;9.516;2023-02-23T03:07:48;9.40;99.90
7762;DHT22;3925;48.636;9.516;2023-02-23T03:10:40;9.40;99.90
7762;DHT22;3925;48.636;9.516;2023-02-23T03:13:35;9.40;99.90
7762;DHT22;3925;48.636;9.516;2023-02-23T03:16:29;9.40;99.90
7762;DHT22;3925;48.636;9.516;2023-02-23T03:19:17;9.40;99.90
7762;DHT22;3925;48.636;9.516;2023-02-23T03:22:11;9.40;99.90
7762;DHT22;3925;48.636;9.516;2023-02-23T03:25:01;9.40;99.90
7762;DHT22;3925;48.636;9.516;2023-02-23T03:27:50;9.40;99.90
7762;DHT22;3925;48.636;9.516;2023-02-23T03:30:44;9.40;99.90
7762;DHT22;3925;48.636;9.516;2023-02-23T03:33:37;9.30;99.90
7762;DHT22;3925;48.636;9.516;2023-02-23T03:36:25;9.40;99.90
7762;DHT22;3925;48.636;9.516;2023-02-23T03:39:17;9.40;99.90
7762;DHT22;3925;48.636;9.516;2023-02-23T03:42:10;9.40;99.90
7762;DHT22;3925;48.636;9.516;2023-02-23T03:44:56;9.40;99.90
7762;DHT22;3925;48.636;9.516;2023-02-23T03:47:42;9.40;99.90
7762;DHT22;3925;48.636;9.516;2023-02-23T03:50:30;9.40;99.90
7762;DHT22;3925;48.636;9.516;2023-02-23T03:53:22;9.30;99.90
7762;DHT22;3925;48.636;9.516;2023-02-23T03:56:09;9.30;99.90
7762;DHT22;3925;48.636;9.516;2023-02-23T03:58:58;9.30;99.90
7762;DHT22;3925;48.636;9.516;2023-02-23T04:01:46;9.40;99.90
7762;DHT22;3925;48.636;9.516;2023-02-23T04:04:31;9.50;99.90
7762;DHT22;3925;48.636;9.516;2023-02-23T04:07:17;9.30;99.90
7762;DHT22;3925;48.636;9.516;2023-02-23T04:10:03;9.30;99.90
7762;DHT22;3925;48.636;9.516;2023-02-23T04:12:53;9.40;99.90
7762;DHT22;3925;48.636;9.516;2023-02-23T04:15:41;9.40;99.90
7762;DHT22;3925;48.636;9.516;2023-02-23T04:18:13;9.40;99.90
7762;DHT22;3925;48.636;9.516;2023-02-23T04:20:40;9.40;99.90
7762;DHT22;3925;48.636;9.516;2023-02-23T04:23:07;9.30;99.90
7762;DHT22;3925;48.636;9.516;2023-02-23T04:25:34;9.30;99.90
7762;DHT22;3925;48.636;9.516;2023-02-23T04:28:01;9.30;99.90
7762;DHT22;3925;48.636;9.516;2023-02-23T04:30:28;9.30;99.90
7762;DHT22;3925;48.636;9.516;2023-02-23T04:32:55;9.30;99.90
7762;DHT22;3925;48.636;9.516;2023-02-23T04:35:25;9.30;99.90
7762;DHT22;3925;48.636;9.516;2023-02-23T04:37:54;9.30;99.90
7762;DHT22;3925;48.636;9.516;2023-02-23T04:40:21;9.30;99.90
7762;DHT22;3925;48.636;9.516;2023-02-23T04:42:48;9.30;99.90
7762;DHT22;3925;48.636;9.516;2023-02-23T04:45:15;9.40;99.90
7762;DHT22;3925;48.636;9.516;2023-02-23T04:47:42;9.40;99.90
7762;DHT22;3925;48.636;9.516;2023-02-23T04:50:10;9.50;99.90
7762;DHT22;3925;48.636;9.516;2023-02-23T04:52:38;9.50;99.90
7762;DHT22;3925;48.636;9.516;2023-02-23T04:55:06;9.40;99.90
7762;DHT22;3925;48.636;9.516;2023-02-23T04:57:34;9.40;99.90
7762;DHT22;3925;48.636;9.516;2023-02-23T05:00:01;9.30;99.90
7762;DHT22;3925;48.636;9.516;2023-02-23T05:02:29;9.30;99.90
7762;DHT22;3925;48.636;9.516;2023-02-23T05:04:56;9.40;99.90
7762;DHT22;3925;48.636;9.516;2023-02-23T05:07:23;9.40;99.90
7762;DHT22;3925;48.636;9.516;2023-02-23T05:09:52;9.40;99.90
7762;DHT22;3925;48.636;9.516;2023-02-23T05:12:18;9.30;99.90
7762;DHT22;3925;48.636;9.516;2023-02-23T05:14:46;9.20;99.90
7762;DHT22;3925;48.636;9.516;2023-02-23T05:17:12;9.10;99.90
7762;DHT22;3925;48.636;9.516;2023-02-23T05:19:40;9.20;99.90
7762;DHT22;3925;48.636;9.516;2023-02-23T05:22:07;9.20;99.90
7762;DHT22;3925;48.636;9.516;2023-02-23T05:24:37;9.10;99.90
7762;DHT22;3925;48.636;9.516;2023-02-23T05:27:05;9.00;99.90
7762;DHT22;3925;48.636;9.516;2023-02-23T05:29:32;9.10;99.90
7762;DHT22;3925;48.636;9.516;2023-02-23T05:31:59;9.10;99.90
7762;DHT22;3925;48.636;9.516;2023-02-23T05:34:26;9.10;99.90
7762;DHT22;3925;48.636;9.516;2023-02-23T05:36:53;9.30;99.90
7762;DHT22;3925;48.636;9.516;2023-02-23T05:39:20;9.30;99.90
7762;DHT22;3925;48.636;9.516;2023-02-23T05:41:47;9.40;99.90
7762;DHT22;3925;48.636;9.516;2023-02-23T05:44:15;9.30;99.90
7762;DHT22;3925;48.636;9.516;2023-02-23T05:46:44;9.40;99.90
7762;DHT22;3925;48.636;9.516;2023-02-23T05:49:11;9.30;99.90
7762;DHT22;3925;48.636;9.516;2023-02-23T05:51:38;9.40;99.90
7762;DHT22;3925;48.636;9.516;2023-02-23T05:54:05;9.20;99.90
7762;DHT22;3925;48.636;9.516;2023-02-23T05:56:32;9.10;99.90
7762;DHT22;3925;48.636;9.516;2023-02-23T05:58:59;9.00;99.90
7762;DHT22;3925;48.636;9.516;2023-02-23T06:01:28;9.00;99.90
7762;DHT22;3925;48.636;9.516;2023-02-23T06:03:55;8.90;99.90
7762;DHT22;3925;48.636;9.516;2023-02-23T06:06:22;9.10;99.90
7762;DHT22;3925;48.636;9.516;2023-02-23T06:08:50;9.20;99.90
7762;DHT22;3925;48.636;9.516;2023-02-23T06:11:17;9.10;99.90
7762;DHT22;3925;48.636;9.516;2023-02-23T06:13:44;9.20;99.90
7762;DHT22;3925;48.636;9.516;2023-02-23T06:16:12;9.20;99.90
7762;DHT22;3925;48.636;9.516;2023-02-23T06:18:40;9.30;99.90
7762;DHT22;3925;48.636;9.516;2023-02-23T06:21:07;9.20;99.90
7762;DHT22;3925;48.636;9.516;2023-02-23T06:23:34;9.20;99.90
7762;DHT22;3925;48.636;9.516;2023-02-23T06:26:01;9.20;99.90
7762;DHT22;3925;48.636;9.516;2023-02-23T06:28:28;9.40;99.90
7762;DHT22;3925;48.636;9.516;2023-02-23T06:30:55;9.30;99.90
7762;DHT22;3925;48.636;9.516;2023-02-23T06:33:23;9.20;99.90
7762;DHT22;3925;48.636;9.516;2023-02-23T06:35:51;9.40;99.90
7762;DHT22;3925;48.636;9.516;2023-02-23T06:38:19;9.40;99.90
7762;DHT22;3925;48.636;9.516;2023-02-23T06:40:46;9.40;99.90
7762;DHT22;3925;48.636;9.516;2023-02-23T06:43:13;9.30;99.90
7762;DHT22;3925;48.636;9.516;2023-02-23T06:45:39;9.40;99.90
7762;DHT22;3925;48.636;9.516;2023-02-23T06:48:06;9.50;99.90
7762;DHT22;3925;48.636;9.516;2023-02-23T06:50:34;9.50;99.90
7762;DHT22;3925;48.636;9.516;2023-02-23T06:53:02;9.50;99.90
7762;DHT22;3925;48.636;9.516;2023-02-23T06:55:29;9.60;99.90
7762;DHT22;3925;48.636;9.516;2023-02-23T06:57:57;9.60;99.90
7762;DHT22;3925;48.636;9.516;2023-02-23T07:00:24;9.50;99.90
7762;DHT22;3925;48.636;9.516;2023-02-23T07:02:50;9.40;99.90
7762;DHT22;3925;48.636;9.516;2023-02-23T07:05:17;9.40;99.90
7762;DHT22;3925;48.636;9.516;2023-02-23T07:07:45;9.50;99.90
7762;DHT22;3925;48.636;9.516;2023-02-23T07:10:13;9.60;99.90
7762;DHT22;3925;48.636;9.516;2023-02-23T07:12:40;9.60;99.90
7762;DHT22;3925;48.636;9.516;2023-02-23T07:15:08;9.50;99.90
7762;DHT22;3925;48.636;9.516;2023-02-23T07:17:35;9.60;99.90
7762;DHT22;3925;48.636;9.516;2023-02-23T07:20:03;9.60;99.90
7762;DHT22;3925;48.636;9.516;2023-02-23T07:22:30;9.60;99.90
7762;DHT22;3925;48.636;9.516;2023-02-23T07:24:58;9.70;99.90
7762;DHT22;3925;48.636;9.516;2023-02-23T07:27:27;9.80;99.90
7762;DHT22;3925;48.636;9.516;2023-02-23T07:29:53;9.90;99.90
7762;DHT22;3925;48.636;9.516;2023-02-23T07:32:20;10.10;99.90
7762;DHT22;3925;48.636;9.516;2023-02-23T07:34:47;10.20;99.90
7762;DHT22;3925;48.636;9.516;2023-02-23T07:37:14;10.30;99.90
7762;DHT22;3925;48.636;9.516;2023-02-23T07:39:42;10.00;99.90
7762;DHT22;3925;48.636;9.516;2023-02-23T07:42:09;9.90;99.90
7762;DHT22;3925;48.636;9.516;2023-02-23T07:44:37;9.90;99.90
7762;DHT22;3925;48.636;9.516;2023-02-23T07:47:04;10.10;99.90
7762;DHT22;3925;48.636;9.516;2023-02-23T07:49:32;10.10;99.90
7762;DHT22;3925;48.636;9.516;2023-02-23T07:51:59;10.20;99.90
7762;DHT22;3925;48.636;9.516;2023-02-23T07:54:26;10.30;99.90
7762;DHT22;3925;48.636;9.516;2023-02-23T07:56:53;10.30;99.90
7762;DHT22;3925;48.636;9.516;2023-02-23T07:59:20;10.30;99.90
7762;DHT22;3925;48.636;9.516;2023-02-23T08:01:48;10.40;99.90
7762;DHT22;3925;48.636;9.516;2023-02-23T08:04:16;10.30;99.90
7762;DHT22;3925;48.636;9.516;2023-02-23T08:06:43;10.50;99.90
7762;DHT22;3925;48.636;9.516;2023-02-23T08:09:10;10.60;99.90
7762;DHT22;3925;48.636;9.516;2023-02-23T08:11:37;10.70;99.90
7762;DHT22;3925;48.636;9.516;2023-02-23T08:14:04;10.70;99.90
7762;DHT22;3925;48.636;9.516;2023-02-23T08:16:31;10.80;99.90
7762;DHT22;3925;48.636;9.516;2023-02-23T08:19:00;10.80;99.90
7762;DHT22;3925;48.636;9.516;2023-02-23T08:21:28;10.70;99.90
7762;DHT22;3925;48.636;9.516;2023-02-23T08:23:55;10.70;99.90
7762;DHT22;3925;48.636;9.516;2023-02-23T08:26:22;10.60;99.90
7762;DHT22;3925;48.636;9.516;2023-02-23T08:28:50;10.70;99.90
7762;DHT22;3925;48.636;9.516;2023-02-23T08:31:17;10.90;99.90
7762;DHT22;3925;48.636;9.516;2023-02-23T08:33:48;11.10;99.90
7762;DHT22;3925;48.636;9.516;2023-02-23T08:36:17;11.10;99.90
7762;DHT22;3925;48.636;9.516;2023-02-23T08:38:45;11.20;99.90
7762;DHT22;3925;48.636;9.516;2023-02-23T08:41:13;11.20;99.90
7762;DHT22;3925;48.636;9.516;2023-02-23T08:43:40;11.40;99.90
7762;DHT22;3925;48.636;9.516;2023-02-23T08:46:07;11.60;99.90
7762;DHT22;3925;48.636;9.516;2023-02-23T08:48:34;11.60;99.90
7762;DHT22;3925;48.636;9.516;2023-02-23T08:51:03;11.60;99.90
7762;DHT22;3925;48.636;9.516;2023-02-23T08:53:32;11.60;99.90
7762;DHT22;3925;48.636;9.516;2023-02-23T08:56:00;11.60;99.90
7762;DHT22;3925;48.636;9.516;2023-02-23T08:58:28;11.50;99.90
7762;DHT22;3925;48.636;9.516;2023-02-23T09:00:55;11.70;99.90
7762;DHT22;3925;48.636;9.516;2023-02-23T09:03:23;11.60;99.90
7762;DHT22;3925;48.636;9.516;2023-02-23T09:05:50;11.40;99.90
7762;DHT22;3925;48.636;9.516;2023-02-23T09:08:17;11.30;99.90
7762;DHT22;3925;48.636;9.516;2023-02-23T09:10:45;11.30;99.90
7762;DHT22;3925;48.636;9.516;2023-02-23T09:13:13;11.40;99.90
7762;DHT22;3925;48.636;9.516;2023-02-23T09:15:40;11.40;99.90
7762;DHT22;3925;48.636;9.516;2023-02-23T09:18:10;11.40;99.90
7762;DHT22;3925;48.636;9.516;2023-02-23T09:20:40;11.70;99.90
7762;DHT22;3925;48.636;9.516;2023-02-23T09:23:08;11.90;99.90
7762;DHT22;3925;48.636;9.516;2023-02-23T09:25:39;11.60;99.90
7762;DHT22;3925;48.636;9.516;2023-02-23T09:28:10;11.80;99.90
7762;DHT22;3925;48.636;9.516;2023-02-23T09:30:38;11.70;99.90
7762;DHT22;3925;48.636;9.516;2023-02-23T09:33:06;11.80;99.90
7762;DHT22;3925;48.636;9.516;2023-02-23T09:35:33;12.10;99.90
7762;DHT22;3925;48.636;9.516;2023-02-23T09:38:03;12.40;99.90
7762;DHT22;3925;48.636;9.516;2023-02-23T09:40:35;12.50;99.90
7762;DHT22;3925;48.636;9.516;2023-02-23T09:43:12;12.80;99.90
7762;DHT22;3925;48.636;9.516;2023-02-23T09:45:42;12.80;99.90
7762;DHT22;3925;48.636;9.516;2023-02-23T09:48:15;12.90;99.90
7762;DHT22;3925;48.636;9.516;2023-02-23T09:50:46;13.00;99.90
7762;DHT22;3925;48.636;9.516;2023-02-23T09:53:33;13.10;99.90
7762;DHT22;3925;48.636;9.516;2023-02-23T09:56:07;13.20;99.90
7762;DHT22;3925;48.636;9.516;2023-02-23T09:58:38;13.10;99.90
7762;DHT22;3925;48.636;9.516;2023-02-23T10:01:39;13.30;99.90
7762;DHT22;3925;48.636;9.516;2023-02-23T10:04:13;13.20;99.90
7762;DHT22;3925;48.636;9.516;2023-02-23T10:06:46;13.20;99.90
7762;DHT22;3925;48.636;9.516;2023-02-23T10:09:19;13.10;99.90
7762;DHT22;3925;48.636;9.516;2023-02-23T10:11:52;13.30;99.90
7762;DHT22;3925;48.636;9.516;2023-02-23T10:14:50;13.30;99.90
7762;DHT22;3925;48.636;9.516;2023-02-23T10:17:28;13.20;99.90
7762;DHT22;3925;48.636;9.516;2023-02-23T10:20:02;13.30;99.90
7762;DHT22;3925;48.636;9.516;2023-02-23T10:22:32;13.20;99.90
7762;DHT22;3925;48.636;9.516;2023-02-23T10:25:04;13.60;99.90
7762;DHT22;3925;48.636;9.516;2023-02-23T10:27:37;13.90;99.90
7762;DHT22;3925;48.636;9.516;2023-02-23T10:30:17;14.20;99.90
7762;DHT22;3925;48.636;9.516;2023-02-23T10:32:53;14.40;99.90
7762;DHT22;3925;48.636;9.516;2023-02-23T10:35:22;15.00;99.90
7762;DHT22;3925;48.636;9.516;2023-02-23T10:37:50;15.50;99.90
7762;DHT22;3925;48.636;9.516;2023-02-23T10:40:21;16.20;99.90
7762;DHT22;3925;48.636;9.516;2023-02-23T10:42:49;16.80;99.90
7762;DHT22;3925;48.636;9.516;2023-02-23T10:45:19;17.10;99.90
7762;DHT22;3925;48.636;9.516;2023-02-23T10:47:51;18.40;99.90
7762;DHT22;3925;48.636;9.516;2023-02-23T10:50:21;20.10;99.90
7762;DHT22;3925;48.636;9.516;2023-02-23T10:52:54;22.00;99.70
7762;DHT22;3925;48.636;9.516;2023-02-23T10:55:24;24.20;94.80
7762;DHT22;3925;48.636;9.516;2023-02-23T10:58:02;25.60;83.00
7762;DHT22;3925;48.636;9.516;2023-02-23T11:00:31;25.80;79.40
7762;DHT22;3925;48.636;9.516;2023-02-23T11:03:01;25.10;75.90
7762;DHT22;3925;48.636;9.516;2023-02-23T11:05:44;24.70;76.80
7762;DHT22;3925;48.636;9.516;2023-02-23T11:08:21;23.90;78.10
7762;DHT22;3925;48.636;9.516;2023-02-23T11:11:03;22.70;79.00
7762;DHT22;3925;48.636;9.516;2023-02-23T11:13:35;21.90;81.60
7762;DHT22;3925;48.636;9.516;2023-02-23T11:16:06;21.90;84.70
7762;DHT22;3925;48.636;9.516;2023-02-23T11:18:35;21.60;86.50
7762;DHT22;3925;48.636;9.516;2023-02-23T11:21:02;20.90;87.20
7762;DHT22;3925;48.636;9.516;2023-02-23T11:23:33;20.50;87.50
7762;DHT22;3925;48.636;9.516;2023-02-23T11:26:03;19.50;89.80
7762;DHT22;3925;48.636;9.516;2023-02-23T11:28:34;19.00;90.70
7762;DHT22;3925;48.636;9.516;2023-02-23T11:31:08;19.00;92.50
7762;DHT22;3925;48.636;9.516;2023-02-23T11:33:39;18.90;92.40
7762;DHT22;3925;48.636;9.516;2023-02-23T11:36:25;18.90;92.20
7762;DHT22;3925;48.636;9.516;2023-02-23T11:39:02;18.70;92.50
7762;DHT22;3925;48.636;9.516;2023-02-23T11:41:30;17.80;93.40
7762;DHT22;3925;48.636;9.516;2023-02-23T11:44:00;18.00;94.20
7762;DHT22;3925;48.636;9.516;2023-02-23T11:46:32;18.20;94.40
7762;DHT22;3925;48.636;9.516;2023-02-23T11:49:02;18.00;94.00
7762;DHT22;3925;48.636;9.516;2023-02-23T11:51:32;18.30;94.20
7762;DHT22;3925;48.636;9.516;2023-02-23T11:53:59;18.60;93.70
7762;DHT22;3925;48.636;9.516;2023-02-23T11:56:28;19.00;93.20
7762;DHT22;3925;48.636;9.516;2023-02-23T11:58:58;19.10;93.30
7762;DHT22;3925;48.636;9.516;2023-02-23T12:01:41;19.00;91.60
7762;DHT22;3925;48.636;9.516;2023-02-23T12:04:12;18.80;91.50
7762;DHT22;3925;48.636;9.516;2023-02-23T12:06:49;18.70;92.00
7762;DHT22;3925;48.636;9.516;2023-02-23T12:09:21;18.20;93.10
7762;DHT22;3925;48.636;9.516;2023-02-23T12:11:50;18.40;93.20
7762;DHT22;3925;48.636;9.516;2023-02-23T12:14:26;18.70;93.70
7762;DHT22;3925;48.636;9.516;2023-02-23T12:16:59;19.10;92.50
7762;DHT22;3925;48.636;9.516;2023-02-23T12:19:33;19.00;91.60
7762;DHT22;3925;48.636;9.516;2023-02-23T12:22:05;19.40;91.30
7762;DHT22;3925;48.636;9.516;2023-02-23T12:24:46;19.50;90.90
7762;DHT22;3925;48.636;9.516;2023-02-23T12:27:17;19.70;90.50
7762;DHT22;3925;48.636;9.516;2023-02-23T12:30:05;18.90;90.10
7762;DHT22;3925;48.636;9.516;2023-02-23T12:32:44;19.20;90.30
7762;DHT22;3925;48.636;9.516;2023-02-23T12:35:17;19.00;92.10
7762;DHT22;3925;48.636;9.516;2023-02-23T12:37:48;18.40;92.80
7762;DHT22;3925;48.636;9.516;2023-02-23T12:40:20;18.50;92.80
7762;DHT22;3925;48.636;9.516;2023-02-23T12:42:53;18.40;93.10
7762;DHT22;3925;48.636;9.516;2023-02-23T12:45:27;18.60;92.70
7762;DHT22;3925;48.636;9.516;2023-02-23T12:48:03;18.20;92.90
7762;DHT22;3925;48.636;9.516;2023-02-23T12:50:33;17.90;94.10
7762;DHT22;3925;48.636;9.516;2023-02-23T12:53:09;17.40;94.60
7762;DHT22;3925;48.636;9.516;2023-02-23T12:55:48;17.60;95.20
7762;DHT22;3925;48.636;9.516;2023-02-23T12:58:22;17.70;94.50
7762;DHT22;3925;48.636;9.516;2023-02-23T13:00:56;17.20;94.80
7762;DHT22;3925;48.636;9.516;2023-02-23T13:06:41;16.70;95.60
7762;DHT22;3925;48.636;9.516;2023-02-23T13:09:20;16.80;95.60
7762;DHT22;3925;48.636;9.516;2023-02-23T13:12:01;16.70;95.90
7762;DHT22;3925;48.636;9.516;2023-02-23T13:14:36;16.90;96.10
7762;DHT22;3925;48.636;9.516;2023-02-23T13:17:17;16.70;95.30
7762;DHT22;3925;48.636;9.516;2023-02-23T13:19:52;16.60;95.70
7762;DHT22;3925;48.636;9.516;2023-02-23T13:22:28;16.70;95.50
7762;DHT22;3925;48.636;9.516;2023-02-23T13:25:00;16.80;94.90
7762;DHT22;3925;48.636;9.516;2023-02-23T13:27:33;16.90;94.50
7762;DHT22;3925;48.636;9.516;2023-02-23T13:30:01;17.20;94.20
7762;DHT22;3925;48.636;9.516;2023-02-23T13:32:32;17.40;94.30
7762;DHT22;3925;48.636;9.516;2023-02-23T13:35:02;16.70;94.90
7762;DHT22;3925;48.636;9.516;2023-02-23T13:37:36;17.00;95.20
7762;DHT22;3925;48.636;9.516;2023-02-23T13:40:16;16.80;94.80
7762;DHT22;3925;48.636;9.516;2023-02-23T13:42:51;16.70;95.00
7762;DHT22;3925;48.636;9.516;2023-02-23T13:45:42;16.50;95.50
7762;DHT22;3925;48.636;9.516;2023-02-23T13:48:29;16.30;95.70
7762;DHT22;3925;48.636;9.516;2023-02-23T13:51:01;16.30;95.70
7762;DHT22;3925;48.636;9.516;2023-02-23T13:53:39;16.30;96.40
7762;DHT22;3925;48.636;9.516;2023-02-23T13:56:08;15.90;96.30
7762;DHT22;3925;48.636;9.516;2023-02-23T13:58:35;15.90;97.00
7762;DHT22;3925;48.636;9.516;2023-02-23T14:01:15;16.10;96.70
7762;DHT22;3925;48.636;9.516;2023-02-23T14:03:51;16.00;96.40
7762;DHT22;3925;48.636;9.516;2023-02-23T14:06:20;16.10;97.10
7762;DHT22;3925;48.636;9.516;2023-02-23T14:08:58;16.30;96.60
7762;DHT22;3925;48.636;9.516;2023-02-23T14:11:40;16.40;96.20
7762;DHT22;3925;48.636;9.516;2023-02-23T14:14:11;16.40;96.10
7762;DHT22;3925;48.636;9.516;2023-02-23T14:16:42;16.40;95.80
7762;DHT22;3925;48.636;9.516;2023-02-23T14:19:33;16.50;96.00
7762;DHT22;3925;48.636;9.516;2023-02-23T14:22:03;16.40;96.10
7762;DHT22;3925;48.636;9.516;2023-02-23T14:24:32;16.40;96.40
7762;DHT22;3925;48.636;9.516;2023-02-23T14:30:24;15.70;95.70
7762;DHT22;3925;48.636;9.516;2023-02-23T14:32:51;15.70;96.80
7762;DHT22;3925;48.636;9.516;2023-02-23T14:35:36;15.70;96.60
7762;DHT22;3925;48.636;9.516;2023-02-23T14:38:11;15.60;97.30
7762;DHT22;3925;48.636;9.516;2023-02-23T14:40:44;15.70;97.20
7762;DHT22;3925;48.636;9.516;2023-02-23T14:43:42;15.70;96.50
7762;DHT22;3925;48.636;9.516;2023-02-23T14:46:13;15.80;96.30
7762;DHT22;3925;48.636;9.516;2023-02-23T14:48:44;15.80;95.10
7762;DHT22;3925;48.636;9.516;2023-02-23T14:51:26;15.70;95.50
7762;DHT22;3925;48.636;9.516;2023-02-23T14:53:58;15.80;95.60
7762;DHT22;3925;48.636;9.516;2023-02-23T14:56:26;15.90;95.00
7762;DHT22;3925;48.636;9.516;2023-02-23T14:58:54;15.90;95.70
7762;DHT22;3925;48.636;9.516;2023-02-23T15:01:36;16.00;95.60
7762;DHT22;3925;48.636;9.516;2023-02-23T15:04:07;16.00;95.50
7762;DHT22;3925;48.636;9.516;2023-02-23T15:06:36;15.90;95.40
7762;DHT22;3925;48.636;9.516;2023-02-23T15:09:03;15.80;95.70
7762;DHT22;3925;48.636;9.516;2023-02-23T15:11:31;15.70;95.00
7762;DHT22;3925;48.636;9.516;2023-02-23T15:13:59;15.70;95.60
7762;DHT22;3925;48.636;9.516;2023-02-23T15:16:28;15.40;96.50
7762;DHT22;3925;48.636;9.516;2023-02-23T15:18:58;15.60;95.90
7762;DHT22;3925;48.636;9.516;2023-02-23T15:21:25;15.60;97.30
7762;DHT22;3925;48.636;9.516;2023-02-23T15:24:02;15.60;97.60
7762;DHT22;3925;48.636;9.516;2023-02-23T15:26:33;15.50;97.50
7762;DHT22;3925;48.636;9.516;2023-02-23T15:29:05;15.60;97.90
7762;DHT22;3925;48.636;9.516;2023-02-23T15:31:32;15.60;98.00
7762;DHT22;3925;48.636;9.516;2023-02-23T15:34:01;15.50;97.80
7762;DHT22;3925;48.636;9.516;2023-02-23T15:36:29;15.30;97.50
7762;DHT22;3925;48.636;9.516;2023-02-23T15:39:02;15.20;97.40
7762;DHT22;3925;48.636;9.516;2023-02-23T15:41:31;15.10;97.50
7762;DHT22;3925;48.636;9.516;2023-02-23T15:44:05;14.90;97.90
7762;DHT22;3925;48.636;9.516;2023-02-23T15:46:35;15.00;98.30
7762;DHT22;3925;48.636;9.516;2023-02-23T15:49:02;15.00;98.40
7762;DHT22;3925;48.636;9.516;2023-02-23T15:51:34;15.00;98.50
7762;DHT22;3925;48.636;9.516;2023-02-23T15:54:06;14.80;98.20
7762;DHT22;3925;48.636;9.516;2023-02-23T15:56:38;14.70;97.80
7762;DHT22;3925;48.636;9.516;2023-02-23T15:59:11;14.60;98.00
7762;DHT22;3925;48.636;9.516;2023-02-23T16:01:42;14.50;98.30
7762;DHT22;3925;48.636;9.516;2023-02-23T16:04:15;14.30;98.30
7762;DHT22;3925;48.636;9.516;2023-02-23T16:06:49;14.20;99.00
7762;DHT22;3925;48.636;9.516;2023-02-23T16:09:25;14.10;99.40
7762;DHT22;3925;48.636;9.516;2023-02-23T16:11:55;13.90;99.30
7762;DHT22;3925;48.636;9.516;2023-02-23T16:14:24;13.80;99.60
7762;DHT22;3925;48.636;9.516;2023-02-23T16:16:53;13.70;99.90
7762;DHT22;3925;48.636;9.516;2023-02-23T16:19:26;13.60;99.90
7762;DHT22;3925;48.636;9.516;2023-02-23T16:21:55;13.60;99.90
7762;DHT22;3925;48.636;9.516;2023-02-23T16:24:26;13.60;99.90
7762;DHT22;3925;48.636;9.516;2023-02-23T16:26:55;13.60;99.90
7762;DHT22;3925;48.636;9.516;2023-02-23T16:29:30;13.50;99.90
7762;DHT22;3925;48.636;9.516;2023-02-23T16:31:59;13.30;99.90
7762;DHT22;3925;48.636;9.516;2023-02-23T16:34:28;13.40;99.90
7762;DHT22;3925;48.636;9.516;2023-02-23T16:36:58;13.20;99.90
7762;DHT22;3925;48.636;9.516;2023-02-23T16:39:27;13.20;99.90
7762;DHT22;3925;48.636;9.516;2023-02-23T16:41:55;13.20;99.90
7762;DHT22;3925;48.636;9.516;2023-02-23T16:44:26;13.20;99.90
7762;DHT22;3925;48.636;9.516;2023-02-23T16:47:08;13.10;99.90
7762;DHT22;3925;48.636;9.516;2023-02-23T16:49:36;13.10;99.90
7762;DHT22;3925;48.636;9.516;2023-02-23T16:52:11;13.10;99.90
7762;DHT22;3925;48.636;9.516;2023-02-23T16:54:39;13.10;99.90